createdAt,value
2023-05-01T00:01:49.384Z,77.18
2023-05-01T00:04:15.821Z,76.80
2023-05-01T00:06:42.247Z,76.82
2023-05-01T00:09:08.634Z,76.32
2023-05-01T00:11:34.925Z,75.58
2023-05-01T00:14:01.225Z,75.73
2023-05-01T00:16:31.748Z,74.53
2023-05-01T00:18:58.083Z,77.88
2023-05-01T00:21:24.385Z,75.73
2023-05-01T00:23:50.703Z,77.90
2023-05-01T00:26:16.990Z,77.50
2023-05-01T00:28:43.808Z,77.22
2023-05-01T00:31:10.134Z,76.80
2023-05-01T00:33:36.425Z,76.80
2023-05-01T00:36:02.727Z,77.35
2023-05-01T00:38:29.060Z,76.47
2023-05-01T00:40:55.355Z,78.21
2023-05-01T00:43:21.665Z,77.13
2023-05-01T00:45:48.066Z,77.80
2023-05-01T00:48:14.440Z,77.03
2023-05-01T00:50:40.756Z,77.40
2023-05-01T00:53:07.081Z,78.31
2023-05-01T00:55:33.384Z,76.78
2023-05-01T00:57:59.686Z,76.10
2023-05-01T01:00:26.113Z,76.70
2023-05-01T01:02:52.458Z,76.39
2023-05-01T01:05:18.784Z,76.93
2023-05-01T01:07:45.128Z,77.07
2023-05-01T01:10:11.445Z,77.88
2023-05-01T01:12:37.779Z,78.65
2023-05-01T01:15:04.109Z,78.00
2023-05-01T01:17:30.427Z,77.56
2023-05-01T01:19:56.959Z,78.11
2023-05-01T01:22:23.545Z,77.91
2023-05-01T01:24:49.845Z,79.08
2023-05-01T01:27:16.154Z,78.98
2023-05-01T01:29:42.470Z,79.51
2023-05-01T01:32:08.768Z,79.26
2023-05-01T01:34:35.080Z,79.14
2023-05-01T01:37:01.395Z,77.74
2023-05-01T01:39:27.691Z,79.10
2023-05-01T01:41:53.984Z,78.67
2023-05-01T01:44:20.298Z,78.76
2023-05-01T01:46:46.629Z,79.62
2023-05-01T01:49:12.958Z,79.46
2023-05-01T01:51:39.314Z,79.36
2023-05-01T01:54:05.613Z,80.00
2023-05-01T01:56:31.903Z,79.30
2023-05-01T01:58:58.219Z,80.00
2023-05-01T02:01:24.604Z,79.89
2023-05-01T02:03:51.027Z,80.25
2023-05-01T02:06:17.492Z,80.43
2023-05-01T02:08:43.848Z,80.35
2023-05-01T02:11:10.149Z,81.02
2023-05-01T02:13:36.468Z,80.27
2023-05-01T02:16:02.827Z,80.31
2023-05-01T02:18:29.271Z,80.22
2023-05-01T02:20:55.585Z,80.09
2023-05-01T02:23:21.880Z,80.68
2023-05-01T02:25:48.193Z,81.88
2023-05-01T02:28:14.504Z,81.24
2023-05-01T02:30:40.807Z,80.15
2023-05-01T02:33:07.160Z,81.69
2023-05-01T02:35:33.516Z,82.54
2023-05-01T02:37:59.817Z,81.47
2023-05-01T02:40:26.117Z,81.78
2023-05-01T02:42:54.565Z,82.49
2023-05-01T02:45:20.921Z,81.77
2023-05-01T02:47:47.325Z,82.82
2023-05-01T02:50:13.674Z,81.93
2023-05-01T02:52:39.997Z,81.64
2023-05-01T02:55:06.352Z,81.59
2023-05-01T02:57:32.704Z,81.39
2023-05-01T02:59:58.999Z,80.27
2023-05-01T03:02:25.304Z,80.97
2023-05-01T03:04:51.625Z,81.83
2023-05-01T03:07:17.935Z,81.31
2023-05-01T03:09:44.259Z,80.75
2023-05-01T03:12:10.588Z,81.46
2023-05-01T03:14:36.899Z,81.74
2023-05-01T03:17:03.212Z,81.42
2023-05-01T03:19:29.524Z,81.64
2023-05-01T03:21:55.825Z,80.15
2023-05-01T03:24:22.125Z,80.52
2023-05-01T03:26:48.443Z,79.21
2023-05-01T03:29:14.736Z,80.05
2023-05-01T03:31:41.117Z,79.81
2023-05-01T03:34:07.497Z,79.54
2023-05-01T03:36:33.834Z,79.41
2023-05-01T03:39:00.157Z,80.85
2023-05-01T03:41:26.479Z,80.42
2023-05-01T03:43:52.796Z,81.03
2023-05-01T03:46:19.142Z,81.77
2023-05-01T03:48:45.517Z,81.89
2023-05-01T03:51:11.852Z,81.71
2023-05-01T03:53:38.176Z,82.11
2023-05-01T03:56:04.521Z,81.04
2023-05-01T03:58:30.870Z,79.96
2023-05-01T04:00:57.198Z,80.11
2023-05-01T04:03:23.665Z,80.52
2023-05-01T04:05:50.019Z,81.18
2023-05-01T04:08:16.342Z,81.64
2023-05-01T04:10:42.656Z,80.15
2023-05-01T04:13:08.947Z,80.57
2023-05-01T04:15:35.244Z,80.14
2023-05-01T04:18:01.690Z,79.96
2023-05-01T04:20:28.172Z,80.61
2023-05-01T04:22:54.484Z,80.44
2023-05-01T04:25:20.821Z,81.19
2023-05-01T04:27:47.213Z,82.19
2023-05-01T04:30:13.516Z,82.24
2023-05-01T04:32:39.864Z,80.99
2023-05-01T04:35:06.164Z,81.25
2023-05-01T04:37:32.461Z,80.71
2023-05-01T04:39:58.893Z,81.49
2023-05-01T04:42:25.330Z,81.00
2023-05-01T04:44:51.632Z,80.36
2023-05-01T04:47:17.952Z,79.53
2023-05-01T04:49:44.263Z,81.90
2023-05-01T04:52:10.570Z,82.99
2023-05-01T04:54:36.885Z,82.24
2023-05-01T04:57:03.200Z,80.34
2023-05-01T04:59:29.518Z,81.85
2023-05-01T05:01:55.930Z,82.72
2023-05-01T05:04:22.354Z,82.45
2023-05-01T05:06:48.757Z,83.95
2023-05-01T05:09:16.503Z,82.72
2023-05-01T05:11:44.278Z,84.04
2023-05-01T05:14:10.562Z,82.50
2023-05-01T05:16:36.891Z,83.17
2023-05-01T05:19:03.193Z,81.86
2023-05-01T05:21:29.515Z,82.38
2023-05-01T05:23:55.841Z,82.10
2023-05-01T05:26:22.158Z,82.53
2023-05-01T05:28:48.461Z,82.16
2023-05-01T05:31:14.790Z,81.58
2023-05-01T05:33:41.096Z,81.64
2023-05-01T05:36:07.415Z,81.33
2023-05-01T05:38:33.824Z,81.88
2023-05-01T05:41:00.135Z,80.90
2023-05-01T05:43:28.104Z,80.65
2023-05-01T05:45:54.690Z,81.06
2023-05-01T05:48:21.070Z,80.49
2023-05-01T05:50:47.403Z,80.56
2023-05-01T05:53:13.727Z,80.01
2023-05-01T05:55:40.023Z,80.99
2023-05-01T05:58:06.355Z,79.63
2023-05-01T06:00:32.824Z,79.25
2023-05-01T06:02:59.203Z,80.68
2023-05-01T06:05:26.744Z,79.48
2023-05-01T06:07:54.091Z,79.63
2023-05-01T06:10:20.380Z,79.74
2023-05-01T06:12:54.912Z,78.87
2023-05-01T06:15:30.465Z,79.41
2023-05-01T06:17:56.822Z,78.84
2023-05-01T06:20:23.146Z,78.88
2023-05-01T06:22:49.471Z,79.08
2023-05-01T06:25:15.780Z,77.98
2023-05-01T06:27:42.079Z,80.32
2023-05-01T06:30:08.420Z,79.67
2023-05-01T06:32:34.756Z,78.71
2023-05-01T06:35:01.070Z,79.07
2023-05-01T06:37:27.673Z,77.92
2023-05-01T06:39:56.257Z,78.18
2023-05-01T06:42:22.698Z,78.60
2023-05-01T06:44:49.014Z,76.96
2023-05-01T06:47:15.362Z,77.09
2023-05-01T06:49:41.690Z,78.60
2023-05-01T06:52:08.027Z,79.03
2023-05-01T06:54:34.334Z,79.07
2023-05-01T06:57:00.647Z,79.00
2023-05-01T06:59:26.961Z,79.48
2023-05-01T07:01:53.293Z,78.33
2023-05-01T07:04:19.619Z,79.62
2023-05-01T07:06:46.035Z,77.93
2023-05-01T07:09:12.386Z,79.25
2023-05-01T07:11:38.692Z,82.36
2023-05-01T07:14:05.021Z,80.54
2023-05-01T07:16:31.370Z,80.71
2023-05-01T07:18:57.733Z,80.21
2023-05-01T07:21:24.111Z,78.56
2023-05-01T07:23:50.458Z,79.71
2023-05-01T07:26:16.790Z,80.62
2023-05-01T07:28:43.118Z,81.99
2023-05-01T07:31:09.436Z,79.66
2023-05-01T07:33:35.750Z,81.44
2023-05-01T07:36:02.068Z,82.02
2023-05-01T07:38:28.376Z,80.94
2023-05-01T07:40:54.676Z,82.34
2023-05-01T07:43:20.995Z,82.28
2023-05-01T07:45:47.509Z,81.59
2023-05-01T07:48:14.098Z,80.12
2023-05-01T07:50:40.457Z,81.34
2023-05-01T07:53:06.771Z,83.01
2023-05-01T07:55:33.073Z,83.07
2023-05-01T07:57:59.412Z,81.78
2023-05-01T08:00:25.725Z,80.08
2023-05-01T08:02:52.420Z,80.49
2023-05-01T08:05:18.900Z,79.67
2023-05-01T08:07:45.195Z,78.02
2023-05-01T08:10:11.501Z,81.18
2023-05-01T08:12:37.927Z,77.07
2023-05-01T08:15:04.256Z,78.04
2023-05-01T08:17:30.653Z,80.10
2023-05-01T08:19:57.309Z,78.87
2023-05-01T08:22:23.833Z,79.63
2023-05-01T08:24:50.151Z,79.73
2023-05-01T08:27:16.534Z,79.06
2023-05-01T08:29:42.848Z,78.26
2023-05-01T08:32:09.183Z,78.54
2023-05-01T08:34:35.535Z,79.48
2023-05-01T08:37:01.873Z,80.43
2023-05-01T08:39:28.164Z,81.10
2023-05-01T08:41:54.482Z,81.05
2023-05-01T08:44:20.786Z,81.24
2023-05-01T08:46:47.131Z,81.51
2023-05-01T08:49:13.514Z,81.25
2023-05-01T08:51:39.819Z,81.16
2023-05-01T08:54:06.133Z,79.68
2023-05-01T08:56:32.473Z,78.38
2023-05-01T08:58:58.798Z,77.98
2023-05-01T09:01:25.177Z,78.84
2023-05-01T09:03:51.575Z,80.50
2023-05-01T09:06:17.989Z,81.41
2023-05-01T09:08:44.461Z,81.39
2023-05-01T09:11:10.800Z,80.60
2023-05-01T09:13:37.115Z,80.02
2023-05-01T09:16:03.461Z,79.50
2023-05-01T09:18:29.829Z,79.33
2023-05-01T09:20:56.131Z,78.00
2023-05-01T09:23:22.424Z,78.17
2023-05-01T09:25:51.400Z,78.00
2023-05-01T09:28:18.306Z,77.32
2023-05-01T09:30:44.605Z,76.43
2023-05-01T09:33:11.062Z,77.46
2023-05-01T09:35:37.507Z,77.67
2023-05-01T09:38:03.800Z,80.00
2023-05-01T09:40:30.124Z,79.47
2023-05-01T09:42:56.422Z,78.76
2023-05-01T09:45:22.732Z,77.26
2023-05-01T09:47:49.089Z,77.95
2023-05-01T09:50:15.407Z,78.52
2023-05-01T09:52:41.711Z,74.80
2023-05-01T09:55:08.036Z,72.60
2023-05-01T09:57:34.340Z,71.87
2023-05-01T10:00:00.636Z,69.43
2023-05-01T10:02:27.053Z,71.05
2023-05-01T10:04:53.416Z,71.61
2023-05-01T10:07:19.722Z,69.77
2023-05-01T10:09:46.055Z,70.11
2023-05-01T10:12:12.346Z,71.49
2023-05-01T10:14:38.712Z,72.87
2023-05-01T10:17:05.093Z,71.34
2023-05-01T10:19:31.458Z,71.67
2023-05-01T10:21:57.792Z,71.78
2023-05-01T10:24:24.121Z,69.23
2023-05-01T10:26:50.447Z,67.73
2023-05-01T10:29:16.741Z,66.85
2023-05-01T10:31:43.142Z,66.69
2023-05-01T10:34:09.491Z,64.36
2023-05-01T10:36:35.834Z,64.96
2023-05-01T10:39:03.132Z,64.33
2023-05-01T10:41:29.564Z,62.99
2023-05-01T10:43:55.907Z,63.11
2023-05-01T10:46:22.266Z,63.32
2023-05-01T10:48:48.593Z,63.81
2023-05-01T10:51:14.906Z,64.33
2023-05-01T10:53:41.257Z,63.62
2023-05-01T10:56:07.556Z,66.17
2023-05-01T10:58:33.868Z,64.35
2023-05-01T11:01:00.191Z,64.64
2023-05-01T11:03:26.497Z,64.46
2023-05-01T11:05:52.807Z,64.70
2023-05-01T11:08:19.151Z,64.11
2023-05-01T11:10:45.443Z,65.10
2023-05-01T11:13:11.739Z,62.95
2023-05-01T11:15:38.052Z,65.24
2023-05-01T11:18:04.409Z,64.37
2023-05-01T11:20:30.714Z,65.52
2023-05-01T11:22:57.024Z,64.79
2023-05-01T11:25:23.312Z,66.72
2023-05-01T11:27:49.611Z,65.16
2023-05-01T11:30:19.128Z,62.93
2023-05-01T11:32:45.470Z,65.01
2023-05-01T11:35:11.798Z,65.37
2023-05-01T11:37:38.110Z,64.61
2023-05-01T11:40:04.415Z,64.34
2023-05-01T11:42:30.778Z,61.86
2023-05-01T11:44:57.924Z,62.25
2023-05-01T11:47:24.413Z,62.02
2023-05-01T11:49:50.759Z,62.02
2023-05-01T11:52:17.078Z,63.57
2023-05-01T11:54:43.381Z,61.91
2023-05-01T11:57:09.690Z,62.94
2023-05-01T11:59:36.008Z,62.81
2023-05-01T12:02:02.342Z,63.28
2023-05-01T12:04:32.071Z,66.54
2023-05-01T12:06:58.930Z,69.22
2023-05-01T12:09:25.248Z,67.29
2023-05-01T12:11:52.707Z,71.03
2023-05-01T12:14:19.538Z,70.21
2023-05-01T12:16:45.899Z,68.43
2023-05-01T12:19:12.211Z,70.58
2023-05-01T12:21:39.041Z,70.25
2023-05-01T12:24:05.338Z,70.17
2023-05-01T12:26:31.651Z,70.04
2023-05-01T12:28:58.123Z,71.41
2023-05-01T12:31:24.487Z,66.92
2023-05-01T12:33:50.820Z,67.89
2023-05-01T12:36:17.130Z,67.47
2023-05-01T12:38:43.438Z,69.34
2023-05-01T12:41:09.771Z,69.36
2023-05-01T12:43:36.088Z,68.31
2023-05-01T12:46:02.420Z,68.22
2023-05-01T12:48:28.751Z,69.13
2023-05-01T12:50:55.300Z,67.34
2023-05-01T12:53:21.670Z,68.01
2023-05-01T12:55:47.966Z,66.64
2023-05-01T12:58:14.289Z,67.98
2023-05-01T13:00:40.594Z,67.27
2023-05-01T13:03:07.037Z,68.90
2023-05-01T13:05:33.606Z,69.58
2023-05-01T13:07:59.958Z,69.22
2023-05-01T13:10:29.581Z,69.43
2023-05-01T13:12:55.908Z,68.37
2023-05-01T13:15:22.212Z,69.11
2023-05-01T13:17:48.571Z,69.31
2023-05-01T13:20:14.906Z,69.47
2023-05-01T13:22:41.200Z,69.42
2023-05-01T13:25:07.711Z,70.04
2023-05-01T13:27:34.090Z,68.49
2023-05-01T13:30:00.912Z,68.63
2023-05-01T13:32:27.607Z,69.40
2023-05-01T13:34:54.077Z,66.25
2023-05-01T13:37:20.421Z,66.11
2023-05-01T13:39:46.725Z,66.17
2023-05-01T13:42:13.054Z,67.52
2023-05-01T13:44:39.356Z,66.94
2023-05-01T13:47:05.650Z,65.75
2023-05-01T13:49:31.988Z,70.26
2023-05-01T13:51:58.296Z,68.31
2023-05-01T13:54:25.484Z,69.79
2023-05-01T13:56:51.843Z,70.81
2023-05-01T13:59:18.134Z,69.25
2023-05-01T14:01:44.508Z,69.94
2023-05-01T14:04:10.878Z,69.53
2023-05-01T14:06:37.226Z,70.29
2023-05-01T14:09:03.527Z,72.34
2023-05-01T14:11:29.847Z,72.19
2023-05-01T14:13:56.152Z,72.93
2023-05-01T14:16:22.479Z,74.65
2023-05-01T14:18:48.844Z,71.85
2023-05-01T14:21:15.145Z,71.84
2023-05-01T14:23:41.438Z,72.57
2023-05-01T14:26:07.767Z,71.16
2023-05-01T14:28:34.075Z,69.79
2023-05-01T14:31:00.422Z,69.88
2023-05-01T14:33:26.760Z,68.77
2023-05-01T14:35:53.058Z,68.03
2023-05-01T14:38:19.368Z,68.59
2023-05-01T14:40:45.700Z,70.96
2023-05-01T14:43:11.998Z,70.73
2023-05-01T14:45:38.322Z,69.81
2023-05-01T14:48:04.684Z,70.16
2023-05-01T14:50:31.038Z,69.28
2023-05-01T14:52:57.342Z,68.71
2023-05-01T14:55:23.679Z,68.86
2023-05-01T14:57:49.979Z,67.86
2023-05-01T15:00:16.274Z,67.05
2023-05-01T15:02:42.748Z,68.07
2023-05-01T15:05:09.206Z,66.99
2023-05-01T15:07:35.516Z,66.50
2023-05-01T15:10:01.886Z,63.20
2023-05-01T15:12:28.327Z,65.69
2023-05-01T15:14:54.616Z,67.53
2023-05-01T15:17:21.025Z,70.08
2023-05-01T15:19:47.353Z,69.14
2023-05-01T15:22:13.664Z,69.09
2023-05-01T15:24:39.981Z,68.30
2023-05-01T15:27:06.282Z,68.46
2023-05-01T15:29:32.580Z,69.51
2023-05-01T15:32:10.850Z,67.16
2023-05-01T15:34:38.062Z,68.88
2023-05-01T15:37:04.398Z,67.14
2023-05-01T15:39:30.719Z,65.84
2023-05-01T15:41:57.057Z,65.17
2023-05-01T15:44:23.378Z,64.91
2023-05-01T15:46:49.767Z,65.06
2023-05-01T15:49:16.102Z,65.79
2023-05-01T15:51:42.415Z,66.89
2023-05-01T15:54:08.705Z,66.43
2023-05-01T15:56:35.007Z,66.84
2023-05-01T15:59:01.315Z,67.64
2023-05-01T16:01:27.955Z,66.42
2023-05-01T16:03:54.364Z,68.16
2023-05-01T16:06:20.920Z,71.28
2023-05-01T16:08:47.338Z,70.07
2023-05-01T16:11:13.644Z,70.53
2023-05-01T16:13:40.390Z,70.53
2023-05-01T16:16:06.793Z,72.39
2023-05-01T16:18:33.258Z,72.85
2023-05-01T16:20:59.902Z,72.73
2023-05-01T16:23:26.208Z,71.91
2023-05-01T16:25:52.491Z,73.03
2023-05-01T16:28:18.895Z,72.84
2023-05-01T16:30:45.472Z,72.70
2023-05-01T16:33:11.793Z,73.10
2023-05-01T16:35:38.174Z,72.43
2023-05-01T16:38:04.489Z,72.87
2023-05-01T16:40:30.802Z,71.91
2023-05-01T16:42:57.119Z,71.65
2023-05-01T16:45:23.501Z,70.55
2023-05-01T16:47:49.879Z,71.26
2023-05-01T16:50:16.256Z,70.79
2023-05-01T16:52:42.562Z,70.24
2023-05-01T16:55:08.864Z,69.57
2023-05-01T16:57:35.179Z,70.04
2023-05-01T17:00:01.649Z,69.61
2023-05-01T17:02:28.523Z,69.44
2023-05-01T17:04:54.919Z,69.93
2023-05-01T17:07:21.300Z,68.30
2023-05-01T17:09:47.585Z,69.12
2023-05-01T17:12:13.972Z,69.89
2023-05-01T17:14:41.830Z,70.46
2023-05-01T17:17:09.594Z,70.20
2023-05-01T17:19:36.056Z,69.87
2023-05-01T17:22:02.369Z,69.12
2023-05-01T17:24:28.677Z,68.92
2023-05-01T17:26:54.991Z,69.31
2023-05-01T17:29:21.305Z,69.20
2023-05-01T17:31:47.638Z,68.79
2023-05-01T17:34:13.996Z,69.55
2023-05-01T17:36:40.316Z,69.87
2023-05-01T17:39:06.798Z,69.65
2023-05-01T17:41:33.288Z,68.91
2023-05-01T17:43:59.655Z,68.73
2023-05-01T17:46:26.041Z,69.59
2023-05-01T17:48:52.509Z,70.02
2023-05-01T17:51:18.840Z,69.69
2023-05-01T17:53:45.163Z,68.37
2023-05-01T17:56:11.504Z,68.86
2023-05-01T17:58:37.805Z,68.93
2023-05-01T18:01:04.145Z,68.84
2023-05-01T18:03:30.647Z,68.39
2023-05-01T18:05:57.002Z,69.03
2023-05-01T18:08:23.306Z,69.37
2023-05-01T18:10:49.627Z,69.40
2023-05-01T18:13:15.930Z,71.17
2023-05-01T18:15:42.222Z,69.61
2023-05-01T18:18:08.659Z,69.96
2023-05-01T18:20:34.980Z,69.79
2023-05-01T18:23:01.311Z,70.01
2023-05-01T18:25:27.664Z,69.88
2023-05-01T18:27:53.978Z,70.60
2023-05-01T18:30:20.283Z,69.72
2023-05-01T18:32:48.773Z,70.12
2023-05-01T18:35:15.445Z,70.30
2023-05-01T18:37:41.743Z,69.92
2023-05-01T18:40:08.058Z,70.56
2023-05-01T18:42:34.355Z,70.92
2023-05-01T18:45:00.641Z,70.67
2023-05-01T18:47:26.993Z,71.39
2023-05-01T18:49:53.310Z,71.28
2023-05-01T18:52:19.614Z,71.91
2023-05-01T18:54:45.951Z,72.17
2023-05-01T18:57:12.268Z,72.38
2023-05-01T18:59:38.588Z,72.52
2023-05-01T19:02:05.034Z,72.79
2023-05-01T19:04:32.138Z,71.52
2023-05-01T19:06:59.404Z,72.48
2023-05-01T19:09:25.757Z,72.41
2023-05-01T19:11:53.763Z,72.67
2023-05-01T19:14:20.574Z,71.81
2023-05-01T19:16:47.205Z,71.78
2023-05-01T19:19:13.625Z,71.89
2023-05-01T19:21:39.917Z,71.32
2023-05-01T19:24:06.282Z,72.45
2023-05-01T19:26:33.020Z,71.88
2023-05-01T19:28:59.482Z,71.79
2023-05-01T19:31:25.897Z,71.27
2023-05-01T19:33:52.330Z,71.67
2023-05-01T19:36:18.618Z,71.59
2023-05-01T19:38:45.041Z,72.12
2023-05-01T19:41:11.328Z,71.34
2023-05-01T19:43:37.633Z,71.51
2023-05-01T19:46:04.298Z,72.33
2023-05-01T19:48:30.706Z,71.94
2023-05-01T19:50:57.006Z,71.56
2023-05-01T19:53:23.325Z,71.85
2023-05-01T19:55:49.630Z,71.09
2023-05-01T19:58:15.929Z,70.97
2023-05-01T20:00:42.293Z,70.60
2023-05-01T20:03:08.677Z,71.32
2023-05-01T20:05:35.089Z,71.55
2023-05-01T20:08:01.414Z,71.47
2023-05-01T20:10:27.718Z,70.42
2023-05-01T20:12:54.048Z,70.12
2023-05-01T20:15:20.370Z,70.49
2023-05-01T20:17:46.687Z,69.71
2023-05-01T20:20:13.075Z,69.87
2023-05-01T20:22:39.412Z,68.38
2023-05-01T20:25:07.454Z,68.84
2023-05-01T20:27:38.285Z,69.67
2023-05-01T20:30:04.757Z,71.64
2023-05-01T20:32:31.139Z,71.58
2023-05-01T20:34:57.549Z,69.97
2023-05-01T20:37:23.899Z,69.73
2023-05-01T20:39:50.192Z,70.34
2023-05-01T20:42:16.492Z,70.01
2023-05-01T20:44:42.804Z,70.36
2023-05-01T20:47:09.103Z,71.06
2023-05-01T20:49:35.396Z,70.76
2023-05-01T20:52:01.702Z,73.27
2023-05-01T20:54:27.995Z,73.68
2023-05-01T20:56:54.288Z,74.56
2023-05-01T20:59:20.603Z,74.13
2023-05-01T21:01:46.921Z,73.40
2023-05-01T21:04:13.539Z,72.77
2023-05-01T21:06:39.966Z,74.80
2023-05-01T21:09:06.311Z,74.77
2023-05-01T21:11:32.604Z,75.05
2023-05-01T21:13:59.157Z,73.72
2023-05-01T21:16:25.515Z,74.02
2023-05-01T21:18:51.950Z,73.42
2023-05-01T21:21:18.267Z,73.79
2023-05-01T21:23:44.563Z,73.41
2023-05-01T21:26:10.841Z,72.77
2023-05-01T21:28:37.161Z,72.70
2023-05-01T21:31:03.512Z,73.40
2023-05-01T21:33:29.811Z,74.15
2023-05-01T21:35:56.159Z,74.07
2023-05-01T21:38:22.453Z,73.52
2023-05-01T21:40:48.735Z,73.74
2023-05-01T21:43:15.045Z,73.76
2023-05-01T21:45:41.345Z,70.62
2023-05-01T21:48:07.766Z,67.17
2023-05-01T21:50:34.151Z,68.13
2023-05-01T21:53:00.454Z,68.49
2023-05-01T21:55:26.757Z,67.95
2023-05-01T21:57:53.070Z,70.12
2023-05-01T22:00:19.411Z,71.79
2023-05-01T22:02:45.817Z,72.06
2023-05-01T22:05:12.185Z,71.80
2023-05-01T22:07:40.927Z,72.25
2023-05-01T22:10:07.232Z,73.52
2023-05-01T22:12:33.550Z,72.68
2023-05-01T22:14:59.855Z,72.76
2023-05-01T22:17:26.165Z,73.65
2023-05-01T22:19:52.513Z,73.19
2023-05-01T22:22:19.236Z,73.09
2023-05-01T22:24:45.696Z,73.13
2023-05-01T22:27:12.000Z,74.47
2023-05-01T22:29:38.298Z,73.08
2023-05-01T22:32:04.618Z,74.67
2023-05-01T22:34:30.984Z,74.97
2023-05-01T22:36:57.292Z,74.13
2023-05-01T22:39:23.600Z,73.34
2023-05-01T22:41:49.952Z,73.49
2023-05-01T22:44:16.247Z,73.58
2023-05-01T22:46:42.573Z,74.00
2023-05-01T22:49:08.901Z,74.32
2023-05-01T22:51:35.219Z,73.19
2023-05-01T22:54:01.516Z,73.87
2023-05-01T22:56:27.861Z,74.37
2023-05-01T22:58:54.180Z,73.49
2023-05-01T23:01:20.530Z,73.40
2023-05-01T23:03:47.071Z,73.38
2023-05-01T23:06:13.517Z,73.14
2023-05-01T23:08:39.890Z,73.65
2023-05-01T23:11:06.222Z,73.85
2023-05-01T23:13:32.526Z,73.22
2023-05-01T23:15:58.846Z,73.42
2023-05-01T23:18:25.287Z,73.19
2023-05-01T23:20:51.605Z,72.17
2023-05-01T23:23:17.927Z,72.10
2023-05-01T23:25:44.249Z,72.66
2023-05-01T23:28:10.551Z,73.24
2023-05-01T23:30:36.838Z,73.38
2023-05-01T23:33:03.220Z,74.13
2023-05-01T23:35:29.596Z,75.42
2023-05-01T23:37:55.904Z,74.77
2023-05-01T23:40:22.264Z,73.94
2023-05-01T23:42:48.585Z,74.12
2023-05-01T23:45:14.890Z,74.46
2023-05-01T23:47:41.343Z,74.92
2023-05-01T23:50:07.679Z,74.46
2023-05-01T23:52:33.990Z,73.90
2023-05-01T23:55:00.296Z,74.36
2023-05-01T23:57:26.586Z,74.33
2023-05-01T23:59:53.881Z,74.77
